Mc Allister Sisters — WAE7159 — position and weather

sailwx.info

Track history (hours):
 
Tides and Currents Weather Stations Pressure Air Temp Water Temp Dewpoint Dewpoint Depression Visibility Wind Speed Wind Dir Waves Ship Positions

Mc Allister Sisters

Owner: MC ALLISTER BROS INC, NEW YORK, NY. More information available from US FCC via Universal Licensing System and Coast Guard Vessel Documentation Center.

Last reported at 2018-Jun-08 04:46 UTC. Time now 2018-Jun-23 11:39 UTC.
Position N 27°03' W 080°03'.
Warning: this ship's position is 15 days out of date.

Length 30 m; draft 4.8 m.

Type: Tug. MMSI: 366966210.

Date/timePositionNaut miles runAvg speedWind from/ knotsBaromVisibWave heightAir tempDewpointWater temp
2018-Jun-08 04:46N 27°03' W 080°03'2 8.6
2018-Jun-08 04:30N 27°01' W 080°01'5 9.3
2018-Jun-08 04:00N 26°57' W 079°59'510.3
2018-Jun-08 03:30N 26°52' W 079°58'3410.9
2018-Jun-08 00:26N 26°18' W 079°60'510.7
2018-Jun-08 00:00N 26°13' W 079°60'510.7
2018-Jun-07 23:30N 26°08' W 079°60'510.5
2018-Jun-07 23:00N 26°03' W 080°00'510.3
2018-Jun-07 22:30N 25°58' W 080°00'510.3
2018-Jun-07 22:00N 25°53' W 079°60'510.5
2018-Jun-07 21:30N 25°47' W 079°60'510.3
2018-Jun-07 21:00N 25°42' W 079°60'510.3
2018-Jun-07 20:30N 25°37' W 080°00'510.5
2018-Jun-07 20:00N 25°32' W 079°59'  
Track history (hours):
 
Tides and Currents Weather Stations Pressure Air Temp Water Temp Dewpoint Dewpoint Depression Visibility Wind Speed Wind Dir Waves Ship Positions

Mc Allister Sisters

Owner: MC ALLISTER BROS INC, NEW YORK, NY. More information available from US FCC via Universal Licensing System and Coast Guard Vessel Documentation Center.

Last reported at 2018-Jun-08 04:46 UTC. Time now 2018-Jun-23 11:39 UTC.
Position N 27°03' W 080°03'.
Warning: this ship's position is 15 days out of date.

Length 30 m; draft 4.8 m.

Type: Tug. MMSI: 366966210.

Date/timePositionNaut miles runAvg speedWind from/ knotsBaromVisibWave heightAir tempDewpointWater temp
2018-Jun-08 04:46N 27°03' W 080°03'2 8.6
2018-Jun-08 04:30N 27°01' W 080°01'5 9.3
2018-Jun-08 04:00N 26°57' W 079°59'510.3
2018-Jun-08 03:30N 26°52' W 079°58'3410.9
2018-Jun-08 00:26N 26°18' W 079°60'510.7
2018-Jun-08 00:00N 26°13' W 079°60'510.7
2018-Jun-07 23:30N 26°08' W 079°60'510.5
2018-Jun-07 23:00N 26°03' W 080°00'510.3
2018-Jun-07 22:30N 25°58' W 080°00'510.3
2018-Jun-07 22:00N 25°53' W 079°60'510.5
2018-Jun-07 21:30N 25°47' W 079°60'510.3
2018-Jun-07 21:00N 25°42' W 079°60'510.3
2018-Jun-07 20:30N 25°37' W 080°00'510.5
2018-Jun-07 20:00N 25°32' W 079°59'  

Dump ship's entire track history